createdAt,value
2018-12-16T00:02:06.878Z,17.33
2018-12-16T00:04:40.435Z,12.47
2018-12-16T00:07:13.707Z,15.23
2018-12-16T00:09:46.915Z,9.97
2018-12-16T00:12:19.894Z,14.23
2018-12-16T00:14:53.137Z,9.97
2018-12-16T00:17:26.490Z,11.40
2018-12-16T00:20:00.074Z,16.10
2018-12-16T00:22:33.276Z,12.23
2018-12-16T00:25:08.148Z,12.13
2018-12-16T00:27:41.451Z,13.77
2018-12-16T00:30:14.640Z,12.97
2018-12-16T00:32:48.020Z,13.00
2018-12-16T00:35:21.345Z,14.83
2018-12-16T00:37:54.299Z,19.20
2018-12-16T00:40:27.775Z,11.57
2018-12-16T00:43:00.742Z,15.20
2018-12-16T00:45:34.502Z,13.50
2018-12-16T00:48:07.675Z,11.43
2018-12-16T00:50:40.788Z,12.67
2018-12-16T00:53:13.894Z,15.13
2018-12-16T00:55:47.096Z,15.63
2018-12-16T00:58:20.464Z,13.17
2018-12-16T01:00:54.830Z,17.23
2018-12-16T01:03:29.168Z,12.63
2018-12-16T01:06:02.589Z,11.87
2018-12-16T01:08:35.666Z,16.00
2018-12-16T01:11:09.013Z,16.30
2018-12-16T01:13:42.299Z,12.73
2018-12-16T01:16:15.813Z,14.23
2018-12-16T01:18:48.968Z,12.43
2018-12-16T01:21:22.331Z,14.13
2018-12-16T01:23:57.530Z,13.45
2018-12-16T01:26:31.091Z,28.13
2018-12-16T01:29:09.921Z,18.17
2018-12-16T01:31:43.141Z,15.83
2018-12-16T01:34:16.519Z,19.13
2018-12-16T01:36:49.491Z,15.03
2018-12-16T01:39:22.548Z,14.23
2018-12-16T01:41:55.567Z,16.37
2018-12-16T01:44:29.067Z,17.73
2018-12-16T01:47:02.539Z,17.83
2018-12-16T01:49:35.675Z,10.53
2018-12-16T01:52:09.025Z,14.73
2018-12-16T01:54:42.153Z,11.13
2018-12-16T01:57:15.411Z,9.03
2018-12-16T01:59:48.427Z,10.17
2018-12-16T02:02:21.764Z,11.13
2018-12-16T02:04:54.960Z,10.70
2018-12-16T02:07:28.228Z,10.65
2018-12-16T02:10:01.884Z,11.60
2018-12-16T02:12:34.893Z,8.60
2018-12-16T02:15:09.152Z,10.40
2018-12-16T02:17:42.318Z,10.48
2018-12-16T02:20:15.455Z,12.83
2018-12-16T02:22:48.600Z,12.33
2018-12-16T02:25:22.096Z,13.00
2018-12-16T02:27:55.290Z,14.93
2018-12-16T02:30:30.625Z,10.72
2018-12-16T02:33:03.808Z,7.50
2018-12-16T02:35:37.732Z,7.87
2018-12-16T02:38:11.257Z,10.10
2018-12-16T02:40:44.539Z,6.97
2018-12-16T02:43:18.124Z,9.13
2018-12-16T02:45:51.613Z,13.27
2018-12-16T02:48:25.247Z,11.90
2018-12-16T02:50:58.560Z,9.28
2018-12-16T02:53:34.537Z,7.93
2018-12-16T02:56:07.856Z,8.27
2018-12-16T02:58:41.289Z,12.37
2018-12-16T03:01:14.526Z,11.12
2018-12-16T03:03:47.750Z,12.80
2018-12-16T03:06:21.017Z,11.87
2018-12-16T03:08:55.666Z,12.03
2018-12-16T03:11:29.483Z,9.93
2018-12-16T03:14:02.975Z,8.20
2018-12-16T03:16:37.285Z,6.77
2018-12-16T03:19:10.825Z,10.93
2018-12-16T03:21:44.034Z,10.53
2018-12-16T03:24:18.087Z,10.97
2018-12-16T03:26:51.608Z,11.33
2018-12-16T03:29:24.996Z,13.87
2018-12-16T03:31:57.917Z,11.63
2018-12-16T03:34:31.402Z,10.03
2018-12-16T03:37:04.608Z,14.97
2018-12-16T03:39:37.759Z,15.00
2018-12-16T03:42:11.112Z,17.13
2018-12-16T03:44:44.324Z,16.27
2018-12-16T03:47:17.410Z,13.30
2018-12-16T03:49:50.550Z,12.07
2018-12-16T03:52:23.625Z,14.53
2018-12-16T03:54:56.772Z,14.63
2018-12-16T03:57:30.462Z,10.60
2018-12-16T04:00:06.765Z,12.23
2018-12-16T04:02:39.638Z,10.77
2018-12-16T04:05:12.860Z,11.67
2018-12-16T04:07:45.951Z,11.97
2018-12-16T04:10:19.137Z,14.50
2018-12-16T04:12:52.345Z,12.20
2018-12-16T04:15:25.593Z,10.97
2018-12-16T04:17:58.722Z,9.57
2018-12-16T04:20:31.802Z,12.10
2018-12-16T04:23:04.779Z,13.77
2018-12-16T04:25:37.883Z,9.20
2018-12-16T04:28:11.626Z,10.03
2018-12-16T04:30:45.004Z,14.50
2018-12-16T04:33:18.317Z,12.70
2018-12-16T04:35:51.588Z,12.43
2018-12-16T04:38:25.119Z,12.23
2018-12-16T04:40:58.492Z,12.85
2018-12-16T04:43:31.451Z,13.20
2018-12-16T04:46:04.618Z,13.47
2018-12-16T04:48:37.890Z,16.97
2018-12-16T04:51:11.351Z,21.85
2018-12-16T04:53:44.218Z,20.77
2018-12-16T04:56:17.504Z,28.03
2018-12-16T04:58:50.649Z,26.83
2018-12-16T05:01:23.970Z,30.45
2018-12-16T05:03:57.120Z,28.20
2018-12-16T05:06:30.452Z,32.47
2018-12-16T05:09:05.009Z,32.10
2018-12-16T05:11:38.321Z,34.33
2018-12-16T05:14:11.322Z,29.57
2018-12-16T05:16:44.514Z,25.27
2018-12-16T05:19:17.791Z,23.53
2018-12-16T05:21:50.977Z,19.00
2018-12-16T05:24:23.987Z,15.23
2018-12-16T05:26:56.944Z,17.57
2018-12-16T05:29:30.587Z,17.13
2018-12-16T05:32:03.811Z,13.40
2018-12-16T05:34:36.845Z,14.73
2018-12-16T05:37:09.998Z,15.53
2018-12-16T05:39:42.948Z,13.23
2018-12-16T05:42:16.095Z,12.07
2018-12-16T05:44:49.132Z,10.77
2018-12-16T05:47:22.372Z,12.50
2018-12-16T05:49:55.307Z,16.03
2018-12-16T05:52:28.923Z,15.10
2018-12-16T05:55:01.963Z,17.87
2018-12-16T05:57:35.199Z,19.23
2018-12-16T06:00:08.468Z,18.27
2018-12-16T06:02:41.435Z,17.83
2018-12-16T06:05:14.637Z,19.10
2018-12-16T06:07:47.624Z,17.63
2018-12-16T06:10:20.687Z,20.40
2018-12-16T06:12:53.714Z,17.67
2018-12-16T06:15:26.680Z,19.50
2018-12-16T06:17:59.665Z,19.20
2018-12-16T06:20:32.758Z,19.33
2018-12-16T06:23:06.043Z,17.20
2018-12-16T06:25:39.070Z,18.57
2018-12-16T06:28:12.237Z,21.57
2018-12-16T06:30:45.869Z,19.80
2018-12-16T06:33:18.914Z,20.10
2018-12-16T06:35:51.975Z,17.87
2018-12-16T06:38:25.025Z,20.47
2018-12-16T06:40:58.636Z,19.10
2018-12-16T06:43:32.242Z,17.37
2018-12-16T06:46:06.571Z,17.00
2018-12-16T06:48:39.744Z,25.40
2018-12-16T06:51:12.917Z,20.67
2018-12-16T06:53:46.170Z,19.83
2018-12-16T06:56:19.232Z,16.30
2018-12-16T06:58:52.506Z,17.93
2018-12-16T07:01:25.827Z,19.87
2018-12-16T07:03:58.941Z,18.07
2018-12-16T07:06:32.074Z,18.27
2018-12-16T07:09:06.595Z,15.83
2018-12-16T07:11:39.771Z,16.77
2018-12-16T07:14:13.004Z,16.52
2018-12-16T07:16:46.285Z,13.37
2018-12-16T07:19:19.482Z,13.73
2018-12-16T07:21:52.489Z,12.70
2018-12-16T07:24:25.983Z,13.25
2018-12-16T07:26:58.838Z,12.80
2018-12-16T07:29:31.894Z,12.70
2018-12-16T07:32:04.995Z,9.73
2018-12-16T07:34:38.029Z,11.60
2018-12-16T07:37:11.213Z,12.03
2018-12-16T07:39:44.220Z,9.67
2018-12-16T07:42:17.316Z,11.43
2018-12-16T07:44:50.245Z,11.07
2018-12-16T07:47:25.228Z,11.10
2018-12-16T07:49:59.446Z,11.17
2018-12-16T07:52:32.392Z,10.73
2018-12-16T07:55:06.154Z,11.00
2018-12-16T07:57:39.474Z,9.65
2018-12-16T08:00:14.193Z,9.00
2018-12-16T08:02:47.241Z,9.20
2018-12-16T08:05:20.434Z,11.37
2018-12-16T08:07:53.429Z,10.98
2018-12-16T08:10:26.493Z,7.60
2018-12-16T08:12:59.895Z,12.77
2018-12-16T08:15:32.940Z,11.57
2018-12-16T08:18:05.971Z,11.10
2018-12-16T08:20:38.948Z,10.47
2018-12-16T08:23:12.038Z,10.80
2018-12-16T08:25:45.074Z,11.23
2018-12-16T08:28:18.109Z,9.13
2018-12-16T08:30:51.176Z,9.75
2018-12-16T08:33:24.308Z,13.67
2018-12-16T08:35:57.492Z,11.87
2018-12-16T08:38:30.466Z,11.10
2018-12-16T08:41:03.750Z,13.57
2018-12-16T08:43:36.702Z,11.40
2018-12-16T08:46:09.826Z,10.37
2018-12-16T08:48:43.027Z,11.60
2018-12-16T08:51:16.107Z,13.03
2018-12-16T08:53:49.344Z,13.60
2018-12-16T08:56:22.435Z,11.00
2018-12-16T08:58:55.510Z,10.03
2018-12-16T09:01:29.369Z,9.77
2018-12-16T09:04:03.053Z,9.83
2018-12-16T09:06:36.284Z,8.40
2018-12-16T09:09:11.971Z,8.50
2018-12-16T09:11:45.590Z,10.90
2018-12-16T09:14:18.682Z,9.25
2018-12-16T09:16:51.661Z,10.27
2018-12-16T09:19:24.848Z,6.47
2018-12-16T09:21:58.162Z,7.77
2018-12-16T09:24:37.028Z,6.20
2018-12-16T09:27:06.718Z,7.10
2018-12-16T09:29:39.899Z,5.97
2018-12-16T09:32:12.963Z,6.13
2018-12-16T09:34:45.943Z,5.87
2018-12-16T09:37:19.111Z,8.38
2018-12-16T09:39:52.028Z,7.70
2018-12-16T09:42:25.164Z,6.60
2018-12-16T09:44:58.272Z,8.00
2018-12-16T09:47:32.007Z,8.67
2018-12-16T09:50:05.352Z,8.10
2018-12-16T09:52:38.757Z,7.47
2018-12-16T09:55:12.238Z,9.77
2018-12-16T09:57:45.518Z,7.20
2018-12-16T10:00:18.553Z,7.93
2018-12-16T10:02:51.776Z,9.20
2018-12-16T10:05:24.879Z,8.03
2018-12-16T10:07:57.975Z,8.27
2018-12-16T10:10:31.120Z,6.70
2018-12-16T10:13:04.241Z,6.63
2018-12-16T10:15:37.566Z,8.80
2018-12-16T10:18:10.597Z,7.10
2018-12-16T10:20:43.742Z,7.92
2018-12-16T10:23:16.865Z,7.23
2018-12-16T10:25:50.128Z,10.30
2018-12-16T10:28:23.856Z,7.90
2018-12-16T10:30:56.990Z,7.22
2018-12-16T10:33:29.993Z,7.63
2018-12-16T10:36:03.608Z,8.77
2018-12-16T10:38:36.755Z,14.30
2018-12-16T10:41:09.695Z,19.17
2018-12-16T10:43:42.837Z,12.37
2018-12-16T10:46:16.076Z,14.47
2018-12-16T10:48:49.124Z,14.53
2018-12-16T10:51:22.329Z,10.97
2018-12-16T10:53:56.032Z,10.90
2018-12-16T10:56:28.959Z,10.77
2018-12-16T10:59:03.417Z,10.10
2018-12-16T11:01:36.348Z,9.03
2018-12-16T11:04:10.143Z,11.08
2018-12-16T11:06:43.107Z,14.77
2018-12-16T11:09:16.197Z,13.43
2018-12-16T11:11:49.440Z,10.27
2018-12-16T11:14:22.443Z,10.60
2018-12-16T11:16:55.576Z,10.80
2018-12-16T11:19:28.598Z,11.10
2018-12-16T11:22:02.203Z,10.10
2018-12-16T11:24:35.238Z,10.27
2018-12-16T11:27:08.484Z,12.33
2018-12-16T11:29:41.529Z,21.93
2018-12-16T11:32:14.672Z,11.23
2018-12-16T11:34:48.340Z,10.87
2018-12-16T11:37:21.435Z,9.28
2018-12-16T11:39:54.574Z,12.00
2018-12-16T11:42:28.050Z,8.50
2018-12-16T11:45:01.221Z,8.77
2018-12-16T11:47:34.205Z,9.57
2018-12-16T11:50:07.544Z,9.50
2018-12-16T11:52:40.812Z,12.33
2018-12-16T11:55:15.005Z,6.47
2018-12-16T11:57:47.912Z,8.83
2018-12-16T12:00:21.116Z,14.10
2018-12-16T12:02:54.276Z,12.83
2018-12-16T12:05:27.464Z,15.57
2018-12-16T12:08:00.646Z,11.00
2018-12-16T12:10:33.714Z,9.23
2018-12-16T12:13:06.835Z,8.20
2018-12-16T12:15:40.119Z,9.27
2018-12-16T12:18:13.269Z,10.37
2018-12-16T12:20:46.344Z,10.70
2018-12-16T12:23:22.241Z,10.97
2018-12-16T12:25:55.468Z,11.17
2018-12-16T12:28:28.967Z,19.00
2018-12-16T12:31:02.135Z,17.10
2018-12-16T12:33:35.220Z,8.87
2018-12-16T12:36:08.264Z,14.00
2018-12-16T12:38:41.366Z,17.63
2018-12-16T12:41:14.646Z,16.87
2018-12-16T12:43:47.781Z,12.90
2018-12-16T12:46:21.445Z,11.37
2018-12-16T12:48:55.143Z,9.60
2018-12-16T12:51:28.081Z,13.07
2018-12-16T12:54:01.500Z,13.50
2018-12-16T12:56:34.799Z,17.90
2018-12-16T12:59:07.754Z,11.60
2018-12-16T13:01:40.976Z,15.63
2018-12-16T13:04:14.002Z,11.57
2018-12-16T13:06:47.268Z,11.73
2018-12-16T13:09:20.379Z,13.27
2018-12-16T13:11:53.634Z,11.57
2018-12-16T13:14:26.753Z,11.43
2018-12-16T13:16:59.877Z,12.40
2018-12-16T13:19:32.968Z,14.63
2018-12-16T13:22:06.566Z,15.10
2018-12-16T13:24:43.991Z,22.77
2018-12-16T13:27:17.055Z,14.00
2018-12-16T13:29:51.678Z,13.53
2018-12-16T13:32:25.048Z,13.30
2018-12-16T13:34:58.331Z,13.60
2018-12-16T13:37:31.498Z,13.57
2018-12-16T13:40:05.767Z,14.87
2018-12-16T13:42:40.087Z,15.20
2018-12-16T13:45:16.292Z,13.77
2018-12-16T13:47:49.391Z,14.07
2018-12-16T13:50:22.551Z,14.33
2018-12-16T13:52:56.028Z,14.60
2018-12-16T13:55:29.302Z,15.30
2018-12-16T13:58:03.223Z,13.27
2018-12-16T14:00:36.515Z,14.30
2018-12-16T14:03:09.588Z,14.63
2018-12-16T14:05:46.686Z,12.17
2018-12-16T14:08:24.180Z,14.60
2018-12-16T14:10:57.258Z,14.50
2018-12-16T14:13:30.507Z,14.60
2018-12-16T14:16:03.768Z,13.77
2018-12-16T14:18:37.315Z,15.07
2018-12-16T14:21:10.833Z,17.23
2018-12-16T14:23:43.995Z,18.03
2018-12-16T14:26:17.360Z,10.60
2018-12-16T14:28:50.791Z,10.90
2018-12-16T14:31:24.037Z,12.30
2018-12-16T14:33:57.367Z,10.20
2018-12-16T14:36:32.427Z,10.13
2018-12-16T14:39:06.401Z,12.00
2018-12-16T14:41:39.776Z,17.23
2018-12-16T14:44:17.154Z,9.80
2018-12-16T14:46:50.495Z,10.57
2018-12-16T14:49:23.819Z,9.90
2018-12-16T14:51:57.153Z,8.50
2018-12-16T14:54:30.990Z,7.50
2018-12-16T14:57:04.202Z,12.30
2018-12-16T14:59:37.356Z,10.63
2018-12-16T15:02:10.610Z,12.03
2018-12-16T15:04:44.116Z,10.07
2018-12-16T15:07:17.437Z,10.37
2018-12-16T15:09:50.583Z,8.30
2018-12-16T15:12:24.056Z,8.90
2018-12-16T15:14:57.511Z,10.93
2018-12-16T15:17:30.997Z,10.10
2018-12-16T15:20:04.345Z,10.77
2018-12-16T15:22:37.544Z,11.73
2018-12-16T15:25:10.925Z,8.17
2018-12-16T15:27:43.993Z,8.70
2018-12-16T15:30:17.186Z,5.97
2018-12-16T15:32:50.386Z,9.93
2018-12-16T15:35:23.538Z,7.03
2018-12-16T15:37:56.968Z,13.40
2018-12-16T15:40:30.889Z,12.83
2018-12-16T15:43:04.310Z,9.77
2018-12-16T15:45:38.308Z,23.37
2018-12-16T15:48:13.308Z,13.33
2018-12-16T15:50:47.852Z,9.27
2018-12-16T15:53:21.536Z,11.20
2018-12-16T15:55:54.747Z,10.07
2018-12-16T15:58:27.942Z,8.67
2018-12-16T16:01:01.741Z,6.93
2018-12-16T16:03:38.504Z,11.73
2018-12-16T16:06:11.726Z,9.77
2018-12-16T16:08:45.087Z,7.10
2018-12-16T16:11:18.462Z,7.00
2018-12-16T16:13:51.854Z,6.47
2018-12-16T16:16:25.109Z,7.37
2018-12-16T16:18:59.111Z,8.30
2018-12-16T16:21:32.528Z,12.30
2018-12-16T16:24:05.831Z,10.50
2018-12-16T16:26:39.225Z,8.17
2018-12-16T16:29:12.766Z,5.13
2018-12-16T16:31:46.174Z,8.33
2018-12-16T16:34:19.355Z,3.93
2018-12-16T16:36:52.631Z,4.70
2018-12-16T16:39:25.991Z,9.17
2018-12-16T16:41:59.149Z,6.83
2018-12-16T16:44:33.239Z,7.72
2018-12-16T16:47:06.597Z,14.23
2018-12-16T16:49:40.577Z,7.70
2018-12-16T16:52:14.126Z,7.83
2018-12-16T16:54:47.801Z,9.25
2018-12-16T16:57:21.010Z,3.57
2018-12-16T16:59:54.319Z,6.70
2018-12-16T17:02:27.831Z,8.47
2018-12-16T17:05:01.376Z,6.08
2018-12-16T17:07:34.727Z,9.17
2018-12-16T17:10:08.464Z,7.00
2018-12-16T17:12:42.024Z,9.57
2018-12-16T17:15:15.179Z,8.87
2018-12-16T17:17:48.551Z,7.80
2018-12-16T17:20:21.615Z,14.10
2018-12-16T17:22:54.673Z,16.27
2018-12-16T17:25:28.304Z,4.97
2018-12-16T17:28:01.777Z,9.90
2018-12-16T17:30:35.175Z,5.57
2018-12-16T17:33:08.614Z,5.13
2018-12-16T17:35:43.595Z,8.73
2018-12-16T17:38:20.491Z,5.90
2018-12-16T17:40:53.511Z,6.10
2018-12-16T17:43:26.767Z,8.40
2018-12-16T17:45:59.959Z,9.17
2018-12-16T17:48:33.441Z,5.85
2018-12-16T17:51:06.435Z,6.63
2018-12-16T17:53:39.919Z,5.63
2018-12-16T17:56:13.202Z,4.43
2018-12-16T17:58:46.311Z,9.40
2018-12-16T18:01:22.856Z,7.00
2018-12-16T18:03:55.959Z,7.80
2018-12-16T18:06:29.059Z,4.67
2018-12-16T18:09:02.288Z,8.90
2018-12-16T18:11:35.503Z,9.60
2018-12-16T18:14:08.843Z,6.83
2018-12-16T18:16:42.149Z,5.50
2018-12-16T18:19:15.663Z,6.30
2018-12-16T18:21:49.448Z,4.50
2018-12-16T18:24:22.550Z,6.03
2018-12-16T18:26:55.825Z,4.30
2018-12-16T18:29:29.417Z,9.27
2018-12-16T18:32:02.654Z,3.83
2018-12-16T18:34:36.113Z,7.77
2018-12-16T18:37:09.247Z,7.00
2018-12-16T18:39:42.401Z,5.23
2018-12-16T18:42:15.703Z,12.95
2018-12-16T18:44:48.878Z,7.77
2018-12-16T18:47:22.299Z,7.53
2018-12-16T18:49:55.852Z,15.30
2018-12-16T18:52:28.905Z,11.17
2018-12-16T18:55:02.200Z,7.70
2018-12-16T18:57:35.540Z,6.07
2018-12-16T19:00:11.415Z,10.37
2018-12-16T19:02:46.501Z,9.83
2018-12-16T19:05:21.155Z,9.07
2018-12-16T19:07:54.608Z,10.77
2018-12-16T19:10:28.447Z,7.47
2018-12-16T19:13:02.719Z,9.70
2018-12-16T19:15:36.611Z,4.87
2018-12-16T19:18:10.173Z,8.37
2018-12-16T19:20:43.727Z,7.70
2018-12-16T19:23:16.811Z,12.43
2018-12-16T19:25:50.379Z,7.20
2018-12-16T19:28:24.010Z,9.53
2018-12-16T19:30:57.590Z,13.43
2018-12-16T19:33:33.135Z,7.60
2018-12-16T19:36:11.111Z,7.58
2018-12-16T19:38:44.768Z,9.77
2018-12-16T19:41:18.259Z,11.23
2018-12-16T19:43:51.341Z,9.97
2018-12-16T19:46:24.928Z,27.17
2018-12-16T19:48:58.368Z,9.37
2018-12-16T19:51:32.105Z,8.10
2018-12-16T19:54:05.648Z,7.73
2018-12-16T19:56:39.032Z,11.23
2018-12-16T19:59:12.633Z,9.77
2018-12-16T20:01:46.959Z,7.03
2018-12-16T20:04:22.057Z,6.73
2018-12-16T20:06:55.886Z,9.85
2018-12-16T20:09:29.296Z,9.67
2018-12-16T20:12:03.148Z,10.77
2018-12-16T20:14:36.854Z,8.57
2018-12-16T20:17:10.215Z,17.73
2018-12-16T20:19:43.539Z,6.47
2018-12-16T20:22:17.203Z,7.47
2018-12-16T20:24:50.543Z,5.00
2018-12-16T20:27:24.431Z,13.03
2018-12-16T20:30:01.961Z,9.93
2018-12-16T20:32:37.830Z,8.23
2018-12-16T20:35:11.306Z,5.30
2018-12-16T20:37:45.043Z,8.50
2018-12-16T20:40:20.735Z,6.53
2018-12-16T20:42:54.412Z,14.53
2018-12-16T20:45:27.717Z,10.97
2018-12-16T20:48:01.117Z,6.57
2018-12-16T20:50:35.002Z,8.27
2018-12-16T20:53:08.434Z,8.83
2018-12-16T20:55:41.880Z,12.80
2018-12-16T20:58:15.527Z,7.73
2018-12-16T21:00:48.725Z,7.07
2018-12-16T21:03:22.670Z,6.90
2018-12-16T21:05:56.168Z,8.00
2018-12-16T21:08:29.795Z,7.30
2018-12-16T21:11:06.803Z,6.30
2018-12-16T21:13:44.335Z,5.73
2018-12-16T21:16:21.811Z,5.97
2018-12-16T21:18:55.033Z,10.53
2018-12-16T21:21:28.308Z,12.07
2018-12-16T21:24:01.762Z,7.37
2018-12-16T21:26:35.191Z,14.63
2018-12-16T21:29:09.309Z,9.60
2018-12-16T21:31:42.762Z,10.67
2018-12-16T21:34:15.996Z,14.40
2018-12-16T21:36:49.519Z,10.07
2018-12-16T21:39:22.876Z,11.53
2018-12-16T21:41:56.444Z,10.33
2018-12-16T21:44:29.877Z,18.40
2018-12-16T21:47:03.105Z,10.03
2018-12-16T21:49:36.508Z,12.60
2018-12-16T21:52:09.691Z,10.60
2018-12-16T21:54:42.896Z,9.40
2018-12-16T21:57:16.304Z,11.30
2018-12-16T21:59:49.931Z,12.03
2018-12-16T22:02:23.326Z,8.53
2018-12-16T22:04:56.978Z,12.80
2018-12-16T22:07:30.283Z,13.03
2018-12-16T22:10:03.848Z,12.63
2018-12-16T22:12:37.081Z,12.97
2018-12-16T22:15:10.761Z,9.63
2018-12-16T22:17:44.198Z,13.00
2018-12-16T22:20:18.293Z,10.47
2018-12-16T22:22:54.765Z,15.77
2018-12-16T22:25:28.012Z,14.47
2018-12-16T22:28:01.215Z,10.67
2018-12-16T22:30:34.742Z,11.67
2018-12-16T22:33:07.824Z,11.93
2018-12-16T22:35:40.928Z,12.37
2018-12-16T22:38:14.747Z,13.10
2018-12-16T22:40:48.028Z,9.60
2018-12-16T22:43:21.417Z,11.87
2018-12-16T22:45:54.596Z,10.03
2018-12-16T22:48:28.130Z,13.20
2018-12-16T22:51:01.235Z,14.87
2018-12-16T22:53:34.692Z,6.10
2018-12-16T22:56:07.763Z,6.10
2018-12-16T22:58:41.246Z,8.83
2018-12-16T23:01:18.743Z,11.97
2018-12-16T23:03:52.201Z,8.23
2018-12-16T23:06:26.756Z,9.37
2018-12-16T23:09:00.296Z,7.60
2018-12-16T23:11:33.496Z,9.63
2018-12-16T23:14:07.392Z,9.90
2018-12-16T23:16:40.783Z,15.27
2018-12-16T23:19:14.112Z,8.80
2018-12-16T23:21:47.579Z,11.17
2018-12-16T23:24:20.806Z,10.83
2018-12-16T23:26:54.044Z,14.77
2018-12-16T23:29:27.203Z,9.77
2018-12-16T23:32:00.592Z,10.13
2018-12-16T23:34:33.796Z,9.73
2018-12-16T23:37:06.944Z,15.07
2018-12-16T23:39:40.168Z,12.73
2018-12-16T23:42:13.479Z,13.63
2018-12-16T23:44:46.758Z,14.47
2018-12-16T23:47:20.018Z,12.73
2018-12-16T23:49:53.077Z,11.33
2018-12-16T23:52:26.720Z,14.53
2018-12-16T23:55:00.665Z,19.90
2018-12-16T23:57:34.633Z,14.80
